Time;durP1;ratioP1;P1;durP2;ratioP2;P2;SDS_P1;SDS_P2;PMS_P1;PMS_P2;Temp;Humidity;BMP_temperature;BMP_pressure;BME280_temperature;BME280_humidity;BME280_pressure;Samples;Min_cycle;Max_cycle;Signal;HPM_P1;HPM_P2
2024/01/14 00:02:13;;;;;;;18.38;2.13;;;4.00;99.90;;;;;;5006368;28;20046;-85
2024/01/14 00:04:40;;;;;;;12.43;2.00;;;4.10;99.90;;;;;;4993997;28;20046;-85
2024/01/14 00:07:07;;;;;;;17.02;2.58;;;4.90;99.90;;;;;;5026048;28;20078;-85
2024/01/14 00:09:33;;;;;;;13.40;2.22;;;4.10;99.90;;;;;;4993406;28;20115;-85
2024/01/14 00:12:00;;;;;;;17.20;1.80;;;5.00;99.90;;;;;;5002161;28;20506;-85
2024/01/14 00:14:27;;;;;;;14.13;1.60;;;4.10;99.90;;;;;;5011017;28;20173;-84
2024/01/14 00:16:53;;;;;;;15.23;2.05;;;4.50;99.90;;;;;;5009704;28;20039;-85
2024/01/14 00:19:20;;;;;;;14.15;1.77;;;4.10;99.90;;;;;;4993933;28;20042;-85
2024/01/14 00:21:46;;;;;;;14.68;1.42;;;4.10;99.90;;;;;;4993772;28;20039;-85
2024/01/14 00:24:13;;;;;;;10.05;1.52;;;5.00;99.90;;;;;;4991542;28;20026;-86
2024/01/14 00:26:40;;;;;;;8.90;1.52;;;5.00;99.90;;;;;;4996279;28;20484;-85
2024/01/14 00:29:07;;;;;;;9.23;1.30;;;4.20;99.90;;;;;;5009993;28;20117;-85
2024/01/14 00:31:33;;;;;;;8.35;1.00;;;4.10;99.90;;;;;;4993353;28;20039;-85
2024/01/14 00:34:00;;;;;;;7.32;0.90;;;4.80;99.90;;;;;;4980467;28;20046;-85
2024/01/14 00:36:26;;;;;;;11.32;1.38;;;4.00;99.90;;;;;;4987278;28;20070;-85
2024/01/14 00:38:53;;;;;;;8.15;1.48;;;4.00;99.90;;;;;;5004713;28;20472;-85
2024/01/14 00:41:20;;;;;;;6.90;1.00;;;4.00;99.90;;;;;;5012916;28;20038;-85
2024/01/14 00:43:47;;;;;;;7.38;0.95;;;4.00;99.90;;;;;;4999921;28;20045;-86
2024/01/14 00:46:13;;;;;;;9.98;0.88;;;5.20;99.90;;;;;;4998018;28;20043;-86
2024/01/14 00:48:40;;;;;;;8.88;1.08;;;4.00;99.90;;;;;;4994376;28;20042;-85
2024/01/14 00:51:06;;;;;;;10.10;1.35;;;4.00;99.90;;;;;;5024503;28;20423;-85
2024/01/14 00:53:33;;;;;;;5.75;0.90;;;5.00;99.90;;;;;;4997867;28;20049;-85
2024/01/14 00:56:00;;;;;;;7.90;1.10;;;4.00;99.90;;;;;;5008930;28;20042;-85
2024/01/14 00:58:26;;;;;;;6.72;1.15;;;4.00;99.90;;;;;;5011755;28;20523;-85
2024/01/14 01:00:53;;;;;;;8.13;0.98;;;3.90;99.90;;;;;;5012510;28;20078;-85
2024/01/14 01:03:20;;;;;;;9.10;1.00;;;3.90;99.90;;;;;;4996686;28;20472;-85
2024/01/14 01:05:46;;;;;;;10.27;1.27;;;4.20;99.90;;;;;;5002229;28;20038;-85
2024/01/14 01:08:13;;;;;;;9.43;1.30;;;3.90;99.90;;;;;;4992692;28;20042;-85
2024/01/14 01:10:39;;;;;;;8.75;1.00;;;3.80;99.90;;;;;;5009022;28;20053;-85
2024/01/14 01:13:06;;;;;;;10.57;1.17;;;3.80;99.90;;;;;;4979892;28;20799;-85
2024/01/14 01:15:33;;;;;;;13.07;2.42;;;3.80;99.90;;;;;;4992517;28;20035;-85
2024/01/14 01:17:59;;;;;;;12.68;1.17;;;3.80;99.90;;;;;;4991314;28;20105;-85
2024/01/14 01:20:26;;;;;;;11.73;1.42;;;4.70;99.90;;;;;;5007179;28;20034;-85
2024/01/14 01:22:53;;;;;;;13.75;1.33;;;3.80;99.90;;;;;;4998007;28;20034;-85
2024/01/14 01:25:20;;;;;;;13.25;1.23;;;3.80;99.90;;;;;;5015119;28;20065;-85
2024/01/14 01:27:46;;;;;;;11.85;1.50;;;3.90;99.90;;;;;;5024568;28;20046;-85
2024/01/14 01:30:13;;;;;;;10.77;1.20;;;3.70;99.90;;;;;;4992436;28;20411;-85
2024/01/14 01:32:40;;;;;;;8.80;1.15;;;3.70;99.90;;;;;;5010543;28;20045;-85
2024/01/14 01:35:06;;;;;;;11.77;1.08;;;3.70;99.90;;;;;;4992239;28;20039;-85
2024/01/14 01:37:33;;;;;;;8.18;1.30;;;3.70;99.90;;;;;;4991895;28;20045;-85
2024/01/14 01:40:00;;;;;;;13.25;1.30;;;3.90;99.90;;;;;;5007950;28;20034;-84
2024/01/14 01:42:26;;;;;;;11.70;1.23;;;3.60;99.90;;;;;;4998451;28;20045;-85
2024/01/14 01:44:53;;;;;;;5.40;1.10;;;3.50;99.90;;;;;;4997223;28;20407;-85
2024/01/14 01:47:20;;;;;;;8.40;1.17;;;3.50;99.90;;;;;;5000453;28;20046;-85
2024/01/14 01:49:47;;;;;;;10.25;1.88;;;3.50;99.90;;;;;;5017252;28;20102;-85
2024/01/14 01:52:14;;;;;;;13.98;1.27;;;3.50;99.90;;;;;;5003914;28;20066;-85
2024/01/14 01:54:42;;;;;;;12.63;1.63;;;4.20;99.90;;;;;;5000194;28;20089;-85
2024/01/14 01:57:10;;;;;;;5.68;1.15;;;3.50;99.90;;;;;;4991757;28;20555;-85
2024/01/14 01:59:38;;;;;;;8.55;1.20;;;3.50;99.90;;;;;;4980740;29;20114;-85
2024/01/14 02:02:05;;;;;;;9.50;1.65;;;3.50;99.90;;;;;;4987431;29;20085;-85
2024/01/14 02:04:32;;;;;;;9.70;1.27;;;3.50;99.90;;;;;;5021164;28;20154;-85
2024/01/14 02:06:59;;;;;;;10.85;1.90;;;3.50;99.90;;;;;;4995342;28;20039;-85
2024/01/14 02:09:26;;;;;;;6.03;1.10;;;3.50;99.90;;;;;;4978867;29;20098;-85
2024/01/14 02:11:53;;;;;;;8.43;1.30;;;3.50;99.90;;;;;;5008402;28;20043;-85
2024/01/14 02:14:20;;;;;;;9.32;1.38;;;4.10;99.90;;;;;;4986384;28;20097;-85
2024/01/14 02:16:46;;;;;;;7.55;1.20;;;3.50;99.90;;;;;;5026104;28;20034;-85
2024/01/14 02:19:13;;;;;;;11.07;1.83;;;3.90;99.90;;;;;;4991479;28;20057;-85
2024/01/14 02:21:45;;;;;;;11.77;1.48;;;3.50;99.90;;;;;;5015973;28;20038;-85
2024/01/14 02:24:24;;;;;;;11.52;1.70;;;3.50;99.90;;;;;;5023041;28;20452;-85
2024/01/14 02:26:51;;;;;;;11.85;1.45;;;3.50;99.90;;;;;;4991743;28;20043;-85
2024/01/14 02:29:19;;;;;;;13.27;1.67;;;3.60;99.90;;;;;;4978505;28;20107;-85
2024/01/14 02:31:46;;;;;;;19.60;1.60;;;4.20;99.90;;;;;;4980503;28;20501;-84
2024/01/14 02:34:13;;;;;;;12.68;1.60;;;3.60;99.90;;;;;;4992360;28;20520;-85
2024/01/14 02:36:40;;;;;;;9.50;1.27;;;4.20;99.90;;;;;;4991668;28;20043;-85
2024/01/14 02:39:07;;;;;;;9.57;1.27;;;3.60;99.90;;;;;;4989001;28;20559;-86
2024/01/14 02:41:34;;;;;;;11.20;1.50;;;3.70;99.90;;;;;;5004071;28;20043;-85
2024/01/14 02:44:01;;;;;;;12.18;1.20;;;3.70;99.90;;;;;;4991526;28;20462;-85
2024/01/14 02:46:29;;;;;;;13.32;1.63;;;3.70;99.90;;;;;;4991257;28;20126;-85
2024/01/14 02:48:57;;;;;;;10.05;1.67;;;3.70;99.90;;;;;;4991584;28;20043;-85
2024/01/14 02:51:23;;;;;;;12.18;1.20;;;3.70;99.90;;;;;;4998758;28;20059;-85
2024/01/14 02:53:50;;;;;;;13.93;1.42;;;3.60;99.90;;;;;;5007756;28;20051;-85
2024/01/14 02:56:17;;;;;;;11.23;1.50;;;3.50;99.90;;;;;;5019902;28;20038;-85
2024/01/14 02:58:43;;;;;;;9.18;1.35;;;3.50;99.90;;;;;;4990626;28;20117;-85
2024/01/14 03:01:12;;;;;;;17.23;2.00;;;3.40;99.90;;;;;;5018870;28;20031;-85
2024/01/14 03:03:39;;;;;;;12.98;1.40;;;3.40;99.90;;;;;;4981879;28;20038;-85
2024/01/14 03:06:06;;;;;;;10.35;1.27;;;3.30;99.90;;;;;;4998140;28;20502;-85
2024/01/14 03:08:34;;;;;;;14.90;1.73;;;3.20;99.90;;;;;;5007560;28;20043;-85
2024/01/14 03:11:00;;;;;;;10.80;1.40;;;3.20;99.90;;;;;;5011099;28;20038;-85
2024/01/14 03:13:28;;;;;;;9.50;1.52;;;3.90;99.90;;;;;;4997678;28;20510;-84
2024/01/14 03:15:54;;;;;;;13.05;2.00;;;3.70;99.90;;;;;;4994361;28;20385;-85
2024/01/14 03:18:21;;;;;;;15.32;1.65;;;3.00;99.90;;;;;;4987772;29;20158;-85
2024/01/14 03:20:48;;;;;;;14.15;2.50;;;3.00;99.90;;;;;;5019213;28;20155;-85
2024/01/14 03:23:14;;;;;;;13.93;1.70;;;2.90;99.90;;;;;;4986730;29;20039;-85
2024/01/14 03:25:41;;;;;;;9.38;1.58;;;2.90;99.90;;;;;;5012713;28;20041;-85
2024/01/14 03:28:08;;;;;;;8.85;1.65;;;2.90;99.90;;;;;;4986142;29;20043;-85
2024/01/14 03:30:34;;;;;;;11.10;1.48;;;2.90;99.90;;;;;;5031471;28;20042;-85
2024/01/14 03:33:01;;;;;;;13.93;2.10;;;3.30;99.90;;;;;;4998223;28;20035;-85
2024/01/14 03:35:29;;;;;;;9.23;1.30;;;2.90;99.90;;;;;;4992127;28;20062;-85
2024/01/14 03:37:55;;;;;;;14.30;1.58;;;2.80;99.90;;;;;;4991926;28;20058;-85
2024/01/14 03:40:22;;;;;;;10.48;1.50;;;3.20;99.90;;;;;;4993859;28;20547;-85
2024/01/14 03:42:49;;;;;;;11.45;1.30;;;2.90;99.90;;;;;;4982084;28;20118;-85
2024/01/14 03:45:15;;;;;;;15.38;1.40;;;2.80;99.90;;;;;;4994969;28;20464;-85
2024/01/14 03:47:42;;;;;;;14.50;1.80;;;3.50;99.90;;;;;;4987911;28;20043;-84
2024/01/14 03:50:09;;;;;;;15.45;1.83;;;3.80;99.90;;;;;;5007023;28;20079;-85
2024/01/14 03:52:35;;;;;;;13.35;1.70;;;2.80;99.90;;;;;;5019147;28;20513;-85
2024/01/14 03:55:02;;;;;;;13.23;2.00;;;2.80;99.90;;;;;;5015096;28;20087;-85
2024/01/14 03:57:28;;;;;;;19.13;1.95;;;2.80;99.90;;;;;;5016055;28;20037;-85
2024/01/14 03:59:56;;;;;;;9.60;1.77;;;2.80;99.90;;;;;;5016342;28;20042;-85
2024/01/14 04:02:22;;;;;;;17.75;1.77;;;3.30;99.90;;;;;;5000504;28;20042;-85
2024/01/14 04:04:49;;;;;;;14.95;1.73;;;2.90;99.90;;;;;;5004208;28;20042;-85
2024/01/14 04:07:16;;;;;;;8.95;1.83;;;3.60;99.90;;;;;;5001627;28;20042;-85
2024/01/14 04:09:43;;;;;;;15.43;1.67;;;2.90;99.90;;;;;;4996660;28;20052;-84
2024/01/14 04:12:09;;;;;;;13.95;1.88;;;3.80;99.90;;;;;;5034842;28;20077;-85
2024/01/14 04:14:36;;;;;;;16.02;1.88;;;2.90;99.90;;;;;;5019737;28;20057;-85
2024/01/14 04:17:04;;;;;;;15.98;2.38;;;3.30;99.90;;;;;;5018790;28;20038;-85
2024/01/14 04:19:30;;;;;;;12.30;2.15;;;2.90;99.90;;;;;;5019028;28;20038;-84
2024/01/14 04:21:57;;;;;;;19.88;2.15;;;2.90;99.90;;;;;;5012668;28;20093;-85
2024/01/14 04:24:24;;;;;;;12.30;1.95;;;2.80;99.90;;;;;;5025728;28;20042;-84
2024/01/14 04:26:50;;;;;;;12.82;1.70;;;2.90;99.90;;;;;;4989313;28;20043;-85
2024/01/14 04:29:17;;;;;;;11.20;1.70;;;2.90;99.90;;;;;;5010051;28;20133;-85
2024/01/14 04:31:43;;;;;;;17.05;2.10;;;2.80;99.90;;;;;;5006865;28;20049;-84
2024/01/14 04:34:10;;;;;;;11.60;1.85;;;3.70;99.90;;;;;;4985461;28;20046;-85
2024/01/14 04:36:37;;;;;;;9.13;1.13;;;2.90;99.90;;;;;;5024312;28;20041;-85
2024/01/14 04:39:04;;;;;;;18.45;2.25;;;2.90;99.90;;;;;;5015778;28;20404;-85
2024/01/14 04:41:30;;;;;;;13.40;1.38;;;3.40;99.90;;;;;;5011950;28;20042;-85
2024/01/14 04:43:57;;;;;;;14.23;1.73;;;3.10;99.90;;;;;;5003042;28;20218;-85
2024/01/14 04:46:23;;;;;;;13.20;1.52;;;3.70;99.90;;;;;;5006754;28;20102;-85
2024/01/14 04:48:50;;;;;;;12.98;1.52;;;2.90;99.90;;;;;;4996376;28;20081;-84
2024/01/14 04:51:18;;;;;;;13.50;1.73;;;2.90;99.90;;;;;;4986730;28;20134;-85
2024/01/14 04:53:45;;;;;;;6.18;1.27;;;3.50;99.90;;;;;;4993120;28;20053;-85
2024/01/14 04:56:12;;;;;;;9.43;1.40;;;3.00;99.90;;;;;;5020518;28;20042;-84
2024/01/14 04:58:39;;;;;;;15.88;1.77;;;3.00;99.90;;;;;;4999454;28;20038;-85
2024/01/14 05:01:05;;;;;;;16.75;1.90;;;3.00;99.90;;;;;;5021245;28;20038;-85
2024/01/14 05:03:32;;;;;;;25.15;2.63;;;3.70;99.90;;;;;;4996085;28;20042;-85
2024/01/14 05:05:59;;;;;;;14.55;1.80;;;2.90;99.90;;;;;;4995772;28;20507;-85
2024/01/14 05:08:25;;;;;;;17.48;2.17;;;3.00;99.90;;;;;;4995775;28;20034;-84
2024/01/14 05:10:52;;;;;;;7.45;1.48;;;2.90;99.90;;;;;;5000111;28;20498;-85
2024/01/14 05:13:18;;;;;;;8.95;1.40;;;2.90;99.90;;;;;;4995573;28;20034;-85
2024/01/14 05:15:45;;;;;;;14.23;1.85;;;2.90;99.90;;;;;;5002273;28;20407;-84
2024/01/14 05:18:12;;;;;;;12.35;1.85;;;2.90;99.90;;;;;;4995495;28;20038;-84
2024/01/14 05:20:39;;;;;;;19.52;2.50;;;2.80;99.90;;;;;;4983021;28;20134;-84
2024/01/14 05:23:05;;;;;;;9.57;1.60;;;2.90;99.90;;;;;;5027488;28;20390;-84
2024/01/14 05:25:32;;;;;;;8.68;1.70;;;2.80;99.90;;;;;;5024338;28;20149;-84
2024/01/14 05:27:59;;;;;;;16.40;2.00;;;2.80;99.90;;;;;;5001556;28;20441;-84
2024/01/14 05:30:25;;;;;;;15.00;1.90;;;2.90;99.90;;;;;;4999757;28;20050;-85
2024/01/14 05:32:52;;;;;;;9.65;1.17;;;2.80;99.90;;;;;;5007947;28;20046;-84
2024/01/14 05:35:18;;;;;;;13.88;1.85;;;3.10;99.90;;;;;;4995620;28;20077;-85
2024/01/14 05:37:45;;;;;;;12.73;1.95;;;3.30;99.90;;;;;;5002847;28;20103;-85
2024/01/14 05:40:12;;;;;;;12.15;1.67;;;2.70;99.90;;;;;;5016670;28;20049;-85
2024/01/14 05:42:41;;;;;;;14.57;2.10;;;2.70;99.90;;;;;;4983464;28;20057;-84
2024/01/14 05:45:10;;;;;;;14.38;1.60;;;3.50;99.90;;;;;;5006758;28;20048;-84
2024/01/14 05:47:37;;;;;;;19.40;1.70;;;2.60;99.90;;;;;;4995936;28;20034;-84
2024/01/14 05:50:04;;;;;;;6.68;1.35;;;2.50;99.90;;;;;;4994938;28;20046;-85
2024/01/14 05:52:30;;;;;;;13.38;1.30;;;2.50;99.90;;;;;;4994895;28;20487;-84
2024/01/14 05:54:57;;;;;;;12.00;1.65;;;2.40;99.90;;;;;;4982389;28;20046;-84
2024/01/14 05:57:23;;;;;;;10.05;1.50;;;2.40;99.90;;;;;;5011011;28;20038;-84
2024/01/14 05:59:50;;;;;;;18.55;3.10;;;2.40;99.90;;;;;;4995101;28;20096;-84
2024/01/14 06:02:17;;;;;;;17.98;1.90;;;2.20;99.90;;;;;;4995427;28;20487;-84
2024/01/14 06:04:44;;;;;;;8.50;1.48;;;2.20;99.90;;;;;;4996484;28;20484;-84
2024/01/14 06:07:10;;;;;;;16.80;1.67;;;2.40;99.90;;;;;;5030455;28;20409;-84
2024/01/14 06:09:37;;;;;;;9.32;1.40;;;2.40;99.90;;;;;;4999991;28;20053;-84
2024/01/14 06:12:04;;;;;;;9.60;1.52;;;2.00;99.90;;;;;;4986518;28;20070;-84
2024/01/14 06:14:30;;;;;;;9.68;1.30;;;2.00;99.90;;;;;;4995711;28;20078;-84
2024/01/14 06:16:57;;;;;;;17.85;2.30;;;2.00;99.90;;;;;;5005546;28;20085;-84
2024/01/14 06:19:23;;;;;;;18.40;1.60;;;2.00;99.90;;;;;;5007211;28;20068;-84
2024/01/14 06:21:50;;;;;;;11.27;1.50;;;1.90;99.90;;;;;;4994696;28;20125;-84
2024/01/14 06:24:17;;;;;;;12.15;1.50;;;1.90;99.90;;;;;;5010511;28;20061;-84
2024/01/14 06:26:43;;;;;;;15.73;1.50;;;2.00;99.90;;;;;;4998134;28;20080;-84
2024/01/14 06:29:10;;;;;;;7.70;1.27;;;1.90;99.90;;;;;;5000485;28;20128;-84
2024/01/14 06:31:37;;;;;;;12.50;1.67;;;1.80;99.90;;;;;;4998331;28;20038;-84
2024/01/14 06:34:06;;;;;;;10.30;1.63;;;1.80;99.90;;;;;;5013520;28;20085;-84
2024/01/14 06:36:33;;;;;;;13.13;1.70;;;2.60;99.90;;;;;;5026640;28;20549;-84
2024/01/14 06:38:59;;;;;;;14.55;1.70;;;1.80;99.90;;;;;;5000415;28;20042;-84
2024/01/14 06:41:27;;;;;;;17.02;2.20;;;1.80;99.90;;;;;;5003179;28;20073;-84
2024/01/14 06:43:54;;;;;;;21.77;1.95;;;1.70;99.90;;;;;;4996713;28;20097;-84
2024/01/14 06:46:21;;;;;;;8.35;1.58;;;2.30;99.90;;;;;;4999715;28;20038;-84
2024/01/14 06:48:47;;;;;;;12.93;1.48;;;2.10;99.90;;;;;;5025093;28;20046;-84
2024/01/14 06:51:14;;;;;;;14.35;2.05;;;1.70;99.90;;;;;;5014743;28;20060;-84
2024/01/14 06:53:41;;;;;;;9.35;1.67;;;1.70;99.90;;;;;;5001898;28;20038;-84
2024/01/14 06:56:08;;;;;;;17.65;2.15;;;2.50;99.90;;;;;;4997859;28;20046;-84
2024/01/14 06:58:35;;;;;;;11.55;1.70;;;2.70;99.90;;;;;;5000288;28;20077;-84
2024/01/14 07:01:03;;;;;;;17.63;1.90;;;1.80;99.90;;;;;;5001019;28;20077;-84
2024/01/14 07:03:30;;;;;;;12.10;2.15;;;1.90;99.90;;;;;;5014786;28;20034;-84
2024/01/14 07:05:57;;;;;;;9.30;1.63;;;2.00;99.90;;;;;;5035235;28;20034;-84
2024/01/14 07:08:24;;;;;;;13.90;1.48;;;2.10;99.90;;;;;;5020676;28;20458;-84
2024/01/14 07:10:51;;;;;;;13.70;1.75;;;2.50;99.90;;;;;;4998548;28;20117;-84
2024/01/14 07:13:18;;;;;;;18.23;2.10;;;2.10;99.90;;;;;;4991141;28;20074;-84
2024/01/14 07:15:45;;;;;;;15.25;2.08;;;3.00;99.90;;;;;;4995258;28;20070;-84
2024/01/14 07:18:12;;;;;;;18.67;2.33;;;2.10;99.90;;;;;;5005119;28;20120;-84
2024/01/14 07:20:41;;;;;;;19.85;2.58;;;2.10;99.90;;;;;;5002585;28;20117;-84
2024/01/14 07:23:07;;;;;;;10.50;1.95;;;2.10;99.90;;;;;;4997455;28;20067;-84
2024/01/14 07:25:34;;;;;;;12.45;1.90;;;2.00;99.90;;;;;;4998691;28;20526;-84
2024/01/14 07:28:00;;;;;;;16.52;2.13;;;2.90;99.90;;;;;;4991607;28;20039;-84
2024/01/14 07:30:27;;;;;;;12.90;1.63;;;2.00;99.90;;;;;;4998594;28;20402;-84
2024/01/14 07:32:53;;;;;;;9.82;1.80;;;2.00;99.90;;;;;;4996580;28;20133;-84
2024/01/14 07:35:20;;;;;;;16.70;2.03;;;2.60;99.90;;;;;;5004882;28;20508;-84
2024/01/14 07:37:47;;;;;;;8.35;1.92;;;2.90;99.90;;;;;;5003684;28;20038;-84
2024/01/14 07:40:13;;;;;;;8.25;1.95;;;2.10;99.90;;;;;;4994098;28;20038;-84
2024/01/14 07:42:40;;;;;;;9.05;1.50;;;2.10;99.90;;;;;;4994266;28;20038;-84
2024/01/14 07:45:07;;;;;;;11.75;1.60;;;2.10;99.90;;;;;;4986279;28;20373;-84
2024/01/14 07:47:33;;;;;;;14.95;2.30;;;2.10;99.90;;;;;;4992654;28;20043;-84
2024/01/14 07:50:00;;;;;;;11.68;2.05;;;2.10;99.90;;;;;;5010764;28;20073;-84
2024/01/14 07:52:27;;;;;;;15.52;2.38;;;2.10;99.90;;;;;;4985947;28;20038;-84
2024/01/14 07:54:54;;;;;;;13.38;1.60;;;2.10;99.90;;;;;;4984566;28;20490;-84
2024/01/14 07:57:21;;;;;;;12.93;1.55;;;2.10;99.90;;;;;;4998015;28;20077;-84
2024/01/14 07:59:48;;;;;;;9.75;1.85;;;2.10;99.90;;;;;;4999070;28;20042;-84
2024/01/14 08:02:14;;;;;;;10.32;1.63;;;2.60;99.90;;;;;;5016064;28;20068;-83
2024/01/14 08:04:41;;;;;;;13.98;2.53;;;2.30;99.90;;;;;;5004585;28;20495;-82
2024/01/14 08:07:07;;;;;;;13.55;2.30;;;2.20;99.90;;;;;;5005164;28;20096;-83
2024/01/14 08:09:34;;;;;;;8.73;2.15;;;2.30;99.90;;;;;;5003675;28;20046;-83
2024/01/14 08:12:01;;;;;;;13.35;1.83;;;2.80;99.90;;;;;;5016141;28;20407;-83
2024/01/14 08:14:27;;;;;;;18.13;4.55;;;2.80;99.90;;;;;;4996518;28;20050;-83
2024/01/14 08:16:54;;;;;;;15.10;1.95;;;3.10;99.90;;;;;;4982207;28;20042;-83
2024/01/14 08:19:21;;;;;;;14.73;2.63;;;3.40;99.90;;;;;;5018534;28;20038;-83
2024/01/14 08:21:48;;;;;;;19.85;2.65;;;2.40;99.90;;;;;;5020280;28;20046;-83
2024/01/14 08:24:14;;;;;;;19.50;2.00;;;3.10;99.90;;;;;;4998532;28;20034;-83
2024/01/14 08:26:45;;;;;;;15.43;3.15;;;3.30;99.90;;;;;;5004219;28;20038;-83
2024/01/14 08:29:13;;;;;;;11.98;1.95;;;3.00;99.90;;;;;;5002346;28;20045;-83
2024/01/14 08:31:40;;;;;;;12.88;2.38;;;2.30;99.90;;;;;;5001607;28;20052;-83
2024/01/14 08:34:08;;;;;;;23.63;5.72;;;3.20;99.90;;;;;;5005298;28;20045;-83
2024/01/14 08:36:36;;;;;;;18.27;3.28;;;2.30;99.90;;;;;;4996501;28;20030;-83
2024/01/14 08:39:03;;;;;;;11.82;2.70;;;2.30;99.90;;;;;;4996125;28;20530;-84
2024/01/14 08:41:30;;;;;;;4.85;1.70;;;2.30;99.90;;;;;;5006956;28;20395;-84
2024/01/14 08:43:59;;;;;;;15.23;2.00;;;2.30;99.90;;;;;;5026952;28;20034;-82
2024/01/14 08:46:27;;;;;;;12.45;2.13;;;2.30;99.90;;;;;;5000200;28;20471;-86
2024/01/14 08:48:53;;;;;;;14.25;2.13;;;2.30;99.90;;;;;;5010815;28;20053;-82
2024/01/14 08:51:20;;;;;;;16.23;2.00;;;2.40;99.90;;;;;;5022527;28;20435;-82
2024/01/14 08:53:47;;;;;;;18.20;2.30;;;2.70;99.90;;;;;;4995893;28;20045;-82
2024/01/14 08:56:13;;;;;;;13.43;1.70;;;2.40;99.90;;;;;;4986926;28;20042;-83
2024/01/14 08:58:40;;;;;;;16.77;2.30;;;2.40;99.90;;;;;;5002023;28;20121;-83
2024/01/14 09:01:07;;;;;;;18.52;1.70;;;2.30;99.90;;;;;;4995717;28;20500;-83
2024/01/14 09:03:34;;;;;;;11.00;1.88;;;2.30;99.90;;;;;;4988417;28;20039;-83
2024/01/14 09:06:00;;;;;;;21.25;2.50;;;2.30;99.90;;;;;;5013726;28;20406;-83
2024/01/14 09:08:27;;;;;;;15.13;2.40;;;2.30;99.90;;;;;;4990248;28;20053;-83
2024/01/14 09:10:54;;;;;;;18.30;2.13;;;2.30;99.90;;;;;;4984525;28;20039;-83
2024/01/14 09:13:20;;;;;;;15.90;2.15;;;2.40;99.90;;;;;;5008518;28;20042;-83
2024/01/14 09:15:47;;;;;;;14.90;2.65;;;1.70;99.90;;;;;;4987183;28;20038;-83
2024/01/14 09:18:13;;;;;;;11.15;1.83;;;3.10;99.90;;;;;;4987902;28;20049;-83
2024/01/14 09:20:40;;;;;;;8.40;1.85;;;2.30;99.90;;;;;;4996580;28;20046;-83
2024/01/14 09:23:07;;;;;;;9.38;1.60;;;2.40;99.90;;;;;;4994706;28;20475;-83
2024/01/14 09:25:34;;;;;;;16.80;2.53;;;3.30;99.90;;;;;;5002429;28;20046;-84
2024/01/14 09:28:00;;;;;;;10.52;1.90;;;2.40;99.90;;;;;;5019557;28;20047;-83
2024/01/14 09:30:27;;;;;;;11.20;2.15;;;2.80;99.90;;;;;;4990076;28;20089;-82
2024/01/14 09:32:53;;;;;;;11.38;2.10;;;2.50;99.90;;;;;;5031144;28;20044;-83
2024/01/14 09:35:20;;;;;;;17.98;1.58;;;2.50;99.90;;;;;;5000726;28;20073;-83
2024/01/14 09:37:47;;;;;;;11.38;1.60;;;2.50;99.90;;;;;;4995024;28;20035;-83
2024/01/14 09:40:16;;;;;;;15.15;1.90;;;2.50;99.90;;;;;;4996904;28;20479;-83
2024/01/14 09:42:47;;;;;;;10.07;1.75;;;2.70;99.90;;;;;;5013550;28;20061;-83
2024/01/14 09:45:14;;;;;;;11.48;1.60;;;2.50;99.90;;;;;;5011221;28;20041;-83
2024/01/14 09:47:42;;;;;;;8.40;1.60;;;2.80;99.90;;;;;;4993297;28;20050;-83
2024/01/14 09:50:10;;;;;;;6.47;1.55;;;2.60;99.90;;;;;;5011513;28;20091;-82
2024/01/14 09:52:39;;;;;;;10.52;1.50;;;2.50;99.90;;;;;;4995059;28;21667;-83
2024/01/14 09:55:06;;;;;;;6.38;1.85;;;2.60;99.90;;;;;;5029382;28;20045;-83
2024/01/14 09:57:34;;;;;;;10.93;1.75;;;2.60;99.90;;;;;;4985446;28;20035;-83
2024/01/14 10:00:05;;;;;;;10.48;1.45;;;2.60;99.90;;;;;;4999734;28;20042;-83
2024/01/14 10:02:33;;;;;;;6.13;1.45;;;2.70;99.90;;;;;;4991432;28;20052;-83
2024/01/14 10:05:00;;;;;;;4.88;1.65;;;2.70;99.90;;;;;;4994302;28;21387;-83
2024/01/14 10:07:27;;;;;;;13.77;1.70;;;3.50;99.90;;;;;;4978650;28;20039;-84
2024/01/14 10:09:54;;;;;;;14.18;2.65;;;3.70;99.90;;;;;;5007181;28;20046;-83
2024/01/14 10:12:21;;;;;;;7.70;1.90;;;2.90;99.90;;;;;;4993615;28;20491;-82
2024/01/14 10:14:57;;;;;;;9.85;1.55;;;3.00;99.90;;;;;;4986837;28;20045;-83
2024/01/14 10:17:25;;;;;;;10.63;2.17;;;3.00;99.90;;;;;;4982113;28;20130;-84
2024/01/14 10:19:55;;;;;;;11.07;1.75;;;3.10;99.90;;;;;;4994611;28;20507;-83
2024/01/14 10:22:22;;;;;;;10.10;2.30;;;4.10;99.90;;;;;;4994741;28;20046;-83
2024/01/14 10:24:52;;;;;;;12.40;1.65;;;3.20;99.90;;;;;;4997961;28;20036;-83
2024/01/14 10:27:24;;;;;;;14.80;1.98;;;3.20;99.90;;;;;;5009809;28;20478;-84
2024/01/14 10:29:50;;;;;;;8.27;1.50;;;4.30;99.90;;;;;;4992453;28;20063;-84
2024/01/14 10:32:19;;;;;;;6.40;1.40;;;3.30;99.90;;;;;;4992294;28;20175;-84
2024/01/14 10:34:46;;;;;;;10.32;1.60;;;3.50;99.90;;;;;;4994454;28;20039;-84
2024/01/14 10:37:12;;;;;;;15.02;1.80;;;3.40;99.90;;;;;;4997597;28;20491;-84
2024/01/14 10:39:40;;;;;;;11.93;2.13;;;3.40;99.90;;;;;;5026537;28;20042;-83
2024/01/14 10:42:07;;;;;;;7.90;1.90;;;3.50;99.90;;;;;;4994262;28;20403;-84
2024/01/14 10:44:33;;;;;;;19.42;1.90;;;3.60;99.90;;;;;;4994236;28;20038;-84
2024/01/14 10:47:03;;;;;;;12.82;2.28;;;3.60;99.90;;;;;;4995193;28;20058;-84
2024/01/14 10:49:30;;;;;;;9.13;1.98;;;3.70;99.90;;;;;;5002668;28;20052;-83
2024/01/14 10:52:07;;;;;;;12.18;2.08;;;4.90;99.90;;;;;;4994159;28;20062;-83
2024/01/14 10:54:49;;;;;;;9.55;1.83;;;3.80;99.90;;;;;;5010617;28;20045;-84
2024/01/14 10:57:35;;;;;;;15.00;1.63;;;3.80;99.90;;;;;;4992083;28;20038;-84
2024/01/14 11:00:04;;;;;;;;;;;3.80;99.90;;;;;;4996829;28;20034;-83
2024/01/14 11:02:33;;;;;;;12.57;1.70;;;3.90;99.90;;;;;;5012669;28;20274;-84
2024/01/14 11:05:00;;;;;;;15.75;2.28;;;3.90;99.90;;;;;;5029585;28;20068;-83
2024/01/14 11:07:27;;;;;;;14.45;2.10;;;4.00;99.90;;;;;;4997740;28;20046;-83
2024/01/14 11:09:55;;;;;;;8.48;1.13;;;4.10;99.90;;;;;;5013654;28;20140;-83
2024/01/14 11:12:29;;;;;;;10.55;1.90;;;4.40;99.90;;;;;;5001131;28;20045;-83
2024/01/14 11:15:10;;;;;;;9.52;1.80;;;5.00;99.90;;;;;;5024469;28;20394;-82
2024/01/14 11:17:48;;;;;;;13.70;2.05;;;4.30;99.90;;;;;;5009818;28;20447;-83
2024/01/14 11:20:18;;;;;;;11.07;1.80;;;4.40;99.90;;;;;;5023459;28;20499;-83
2024/01/14 11:22:45;;;;;;;11.95;2.15;;;4.30;99.90;;;;;;5020794;28;20109;-83
2024/01/14 11:25:18;;;;;;;11.43;2.65;;;5.10;99.90;;;;;;5020112;28;20034;-83
2024/01/14 11:27:45;;;;;;;8.23;1.70;;;4.30;99.90;;;;;;5001456;28;20108;-84
2024/01/14 11:30:17;;;;;;;9.43;1.40;;;5.00;99.90;;;;;;4997464;28;20121;-83
2024/01/14 11:32:44;;;;;;;12.90;1.77;;;4.40;99.90;;;;;;5013515;28;20528;-83
2024/01/14 11:35:33;;;;;;;7.95;1.45;;;4.40;99.90;;;;;;4996779;28;20080;-83
2024/01/14 11:38:00;;;;;;;8.90;1.50;;;4.40;99.90;;;;;;5003755;28;20042;-84
2024/01/14 11:40:27;;;;;;;11.18;1.90;;;4.40;99.90;;;;;;4997194;28;20034;-84
2024/01/14 11:43:10;;;;;;;10.63;2.10;;;4.30;99.90;;;;;;5029788;28;20491;-83
2024/01/14 11:45:38;;;;;;;5.43;1.85;;;3.70;99.90;;;;;;4997344;28;20117;-84
2024/01/14 11:48:06;;;;;;;8.10;1.23;;;4.50;99.90;;;;;;4997133;28;20042;-84
2024/01/14 11:50:35;;;;;;;12.85;1.40;;;4.40;99.90;;;;;;4996797;28;20154;-84
2024/01/14 11:53:04;;;;;;;12.00;1.85;;;4.40;99.90;;;;;;4998837;28;20046;-84
2024/01/14 11:55:32;;;;;;;9.80;1.63;;;4.40;99.90;;;;;;5034071;28;20095;-84
2024/01/14 11:58:13;;;;;;;13.45;1.60;;;4.40;99.90;;;;;;5013192;28;20414;-84
2024/01/14 12:00:40;;;;;;;9.70;1.70;;;4.40;99.90;;;;;;5025594;28;20038;-84
2024/01/14 12:03:12;;;;;;;6.30;1.25;;;4.40;99.90;;;;;;4998184;28;20056;-83
2024/01/14 12:05:40;;;;;;;6.70;1.33;;;4.40;99.90;;;;;;5011376;28;20034;-84
2024/01/14 12:08:07;;;;;;;8.98;2.33;;;4.80;99.90;;;;;;4996579;28;20039;-83
2024/01/14 12:10:35;;;;;;;10.45;1.58;;;4.40;99.90;;;;;;5004177;28;20084;-84
2024/01/14 12:13:03;;;;;;;11.32;1.60;;;4.80;99.90;;;;;;5009210;28;20521;-84
2024/01/14 12:15:30;;;;;;;10.18;2.05;;;4.50;99.90;;;;;;4996456;28;20046;-84
2024/01/14 12:17:58;;;;;;;12.10;1.70;;;4.60;99.90;;;;;;5012403;28;20057;-84
2024/01/14 12:20:26;;;;;;;6.05;2.08;;;5.60;99.90;;;;;;4996378;28;20034;-84
2024/01/14 12:23:06;;;;;;;10.82;1.50;;;4.60;99.90;;;;;;4991115;28;20074;-83
2024/01/14 12:25:32;;;;;;;9.32;1.95;;;4.40;99.90;;;;;;5014110;28;20030;-83
2024/01/14 12:28:00;;;;;;;10.80;2.10;;;4.70;99.90;;;;;;4993175;28;20447;-84
2024/01/14 12:30:30;;;;;;;8.02;2.25;;;4.40;99.90;;;;;;5012982;28;20038;-83
2024/01/14 12:32:58;;;;;;;11.50;1.98;;;4.50;99.90;;;;;;5014572;28;20563;-84
2024/01/14 12:35:38;;;;;;;11.93;1.58;;;4.50;99.90;;;;;;4996933;28;20038;-84
2024/01/14 12:38:06;;;;;;;7.78;1.45;;;4.60;99.90;;;;;;5021348;28;20057;-83
2024/01/14 12:40:35;;;;;;;12.07;2.15;;;4.60;99.90;;;;;;4998918;28;20038;-83
2024/01/14 12:43:02;;;;;;;10.05;1.27;;;4.90;99.90;;;;;;5006312;28;20030;-83
2024/01/14 12:45:29;;;;;;;8.07;1.40;;;4.70;99.90;;;;;;5012545;28;20124;-83
2024/01/14 12:48:00;;;;;;;12.07;2.20;;;4.70;99.90;;;;;;5010274;28;20455;-83
2024/01/14 12:50:37;;;;;;;9.00;1.33;;;4.70;99.90;;;;;;5003075;28;20051;-84
2024/01/14 12:53:13;;;;;;;7.07;1.13;;;4.70;99.90;;;;;;4989401;28;20050;-84